sensor_id;sensor_type;location;lat;lon;timestamp;temperature;humidity
19536;HTU21D;9913;51.168;4.124;2022-12-18T00:00:07;-4.59;89.88
19536;HTU21D;9913;51.168;4.124;2022-12-18T00:02:43;-4.59;89.83
19536;HTU21D;9913;51.168;4.124;2022-12-18T00:05:13;-4.60;89.67
19536;HTU21D;9913;51.168;4.124;2022-12-18T00:07:41;-4.58;89.34
19536;HTU21D;9913;51.168;4.124;2022-12-18T00:10:09;-4.54;89.06
19536;HTU21D;9913;51.168;4.124;2022-12-18T00:12:44;-4.70;88.64
19536;HTU21D;9913;51.168;4.124;2022-12-18T00:15:12;-4.84;87.73
19536;HTU21D;9913;51.168;4.124;2022-12-18T00:17:40;-4.88;87.39
19536;HTU21D;9913;51.168;4.124;2022-12-18T00:20:09;-4.90;87.18
19536;HTU21D;9913;51.168;4.124;2022-12-18T00:22:39;-4.96;87.07
19536;HTU21D;9913;51.168;4.124;2022-12-18T00:25:08;-4.91;86.92
19536;HTU21D;9913;51.168;4.124;2022-12-18T00:27:36;-4.84;87.12
19536;HTU21D;9913;51.168;4.124;2022-12-18T00:30:05;-4.75;87.28
19536;HTU21D;9913;51.168;4.124;2022-12-18T00:32:34;-4.67;87.30
19536;HTU21D;9913;51.168;4.124;2022-12-18T00:35:02;-4.63;87.22
19536;HTU21D;9913;51.168;4.124;2022-12-18T00:37:33;-4.65;86.96
19536;HTU21D;9913;51.168;4.124;2022-12-18T00:40:03;-4.66;86.83
19536;HTU21D;9913;51.168;4.124;2022-12-18T00:42:32;-4.68;86.64
19536;HTU21D;9913;51.168;4.124;2022-12-18T00:45:18;-4.71;86.49
19536;HTU21D;9913;51.168;4.124;2022-12-18T00:47:46;-4.79;86.27
19536;HTU21D;9913;51.168;4.124;2022-12-18T00:50:15;-4.78;86.20
19536;HTU21D;9913;51.168;4.124;2022-12-18T00:52:43;-4.81;86.15
19536;HTU21D;9913;51.168;4.124;2022-12-18T00:55:13;-4.80;86.19
19536;HTU21D;9913;51.168;4.124;2022-12-18T00:57:42;-4.83;86.09
19536;HTU21D;9913;51.168;4.124;2022-12-18T01:00:13;-4.83;86.12
19536;HTU21D;9913;51.168;4.124;2022-12-18T01:02:42;-4.81;86.32
19536;HTU21D;9913;51.168;4.124;2022-12-18T01:05:12;-4.79;86.29
19536;HTU21D;9913;51.168;4.124;2022-12-18T01:07:40;-4.72;86.53
19536;HTU21D;9913;51.168;4.124;2022-12-18T01:10:12;-4.80;86.41
19536;HTU21D;9913;51.168;4.124;2022-12-18T01:12:41;-4.84;86.22
19536;HTU21D;9913;51.168;4.124;2022-12-18T01:15:10;-4.88;86.06
19536;HTU21D;9913;51.168;4.124;2022-12-18T01:17:39;-4.91;85.98
19536;HTU21D;9913;51.168;4.124;2022-12-18T01:20:09;-4.89;86.12
19536;HTU21D;9913;51.168;4.124;2022-12-18T01:22:39;-4.82;86.24
19536;HTU21D;9913;51.168;4.124;2022-12-18T01:25:08;-4.80;86.25
19536;HTU21D;9913;51.168;4.124;2022-12-18T01:27:37;-4.75;86.19
19536;HTU21D;9913;51.168;4.124;2022-12-18T01:30:07;-4.78;86.28
19536;HTU21D;9913;51.168;4.124;2022-12-18T01:32:35;-4.79;86.23
19536;HTU21D;9913;51.168;4.124;2022-12-18T01:35:05;-4.80;86.19
19536;HTU21D;9913;51.168;4.124;2022-12-18T01:37:33;-4.79;86.45
19536;HTU21D;9913;51.168;4.124;2022-12-18T01:40:02;-4.74;86.51
19536;HTU21D;9913;51.168;4.124;2022-12-18T01:42:31;-4.79;86.36
19536;HTU21D;9913;51.168;4.124;2022-12-18T01:45:04;-4.79;86.35
19536;HTU21D;9913;51.168;4.124;2022-12-18T01:47:38;-4.73;86.35
19536;HTU21D;9913;51.168;4.124;2022-12-18T01:50:11;-4.76;86.25
19536;HTU21D;9913;51.168;4.124;2022-12-18T01:52:41;-4.82;86.03
19536;HTU21D;9913;51.168;4.124;2022-12-18T01:55:11;-4.83;85.93
19536;HTU21D;9913;51.168;4.124;2022-12-18T01:57:41;-4.94;85.94
19536;HTU21D;9913;51.168;4.124;2022-12-18T02:00:14;-5.03;85.61
19536;HTU21D;9913;51.168;4.124;2022-12-18T02:02:44;-5.03;85.64
19536;HTU21D;9913;51.168;4.124;2022-12-18T02:05:15;-5.09;85.67
19536;HTU21D;9913;51.168;4.124;2022-12-18T02:07:57;-5.04;85.45
19536;HTU21D;9913;51.168;4.124;2022-12-18T02:10:37;-5.05;85.60
19536;HTU21D;9913;51.168;4.124;2022-12-18T02:13:11;-5.03;85.52
19536;HTU21D;9913;51.168;4.124;2022-12-18T02:15:46;-5.04;85.68
19536;HTU21D;9913;51.168;4.124;2022-12-18T02:18:21;-5.03;85.91
19536;HTU21D;9913;51.168;4.124;2022-12-18T02:20:55;-4.94;85.94
19536;HTU21D;9913;51.168;4.124;2022-12-18T02:23:47;-4.96;86.01
19536;HTU21D;9913;51.168;4.124;2022-12-18T02:26:23;-4.91;86.01
19536;HTU21D;9913;51.168;4.124;2022-12-18T02:28:57;-4.93;86.20
19536;HTU21D;9913;51.168;4.124;2022-12-18T02:31:32;-4.91;86.16
19536;HTU21D;9913;51.168;4.124;2022-12-18T02:34:05;-4.88;86.17
19536;HTU21D;9913;51.168;4.124;2022-12-18T02:36:40;-4.96;86.02
19536;HTU21D;9913;51.168;4.124;2022-12-18T02:39:11;-4.93;85.90
19536;HTU21D;9913;51.168;4.124;2022-12-18T02:41:50;-4.99;85.87
19536;HTU21D;9913;51.168;4.124;2022-12-18T02:44:20;-5.03;85.84
19536;HTU21D;9913;51.168;4.124;2022-12-18T02:46:50;-5.09;85.82
19536;HTU21D;9913;51.168;4.124;2022-12-18T02:49:32;-5.18;85.79
19536;HTU21D;9913;51.168;4.124;2022-12-18T02:52:09;-5.13;85.93
19536;HTU21D;9913;51.168;4.124;2022-12-18T02:54:49;-5.12;85.99
19536;HTU21D;9913;51.168;4.124;2022-12-18T02:57:24;-5.17;85.92
19536;HTU21D;9913;51.168;4.124;2022-12-18T03:00:03;-5.14;85.87
19536;HTU21D;9913;51.168;4.124;2022-12-18T03:02:38;-5.14;85.87
19536;HTU21D;9913;51.168;4.124;2022-12-18T03:05:13;-5.14;85.69
19536;HTU21D;9913;51.168;4.124;2022-12-18T03:07:47;-5.17;85.64
19536;HTU21D;9913;51.168;4.124;2022-12-18T03:10:21;-5.13;85.66
19536;HTU21D;9913;51.168;4.124;2022-12-18T03:12:56;-5.16;85.64
19536;HTU21D;9913;51.168;4.124;2022-12-18T03:15:30;-5.19;85.60
19536;HTU21D;9913;51.168;4.124;2022-12-18T03:18:10;-5.14;85.61
19536;HTU21D;9913;51.168;4.124;2022-12-18T03:20:41;-5.19;85.55
19536;HTU21D;9913;51.168;4.124;2022-12-18T03:23:16;-5.23;85.50
19536;HTU21D;9913;51.168;4.124;2022-12-18T03:25:52;-5.17;85.49
19536;HTU21D;9913;51.168;4.124;2022-12-18T03:28:28;-5.15;85.40
19536;HTU21D;9913;51.168;4.124;2022-12-18T03:31:04;-5.16;85.41
19536;HTU21D;9913;51.168;4.124;2022-12-18T03:33:38;-5.17;85.38
19536;HTU21D;9913;51.168;4.124;2022-12-18T03:36:07;-5.20;85.35
19536;HTU21D;9913;51.168;4.124;2022-12-18T03:38:37;-5.17;85.42
19536;HTU21D;9913;51.168;4.124;2022-12-18T03:41:15;-5.20;85.33
19536;HTU21D;9913;51.168;4.124;2022-12-18T03:44:22;-5.26;85.35
19536;HTU21D;9913;51.168;4.124;2022-12-18T03:46:59;-5.29;85.30
19536;HTU21D;9913;51.168;4.124;2022-12-18T03:49:34;-5.32;85.40
19536;HTU21D;9913;51.168;4.124;2022-12-18T03:52:09;-5.30;85.51
19536;HTU21D;9913;51.168;4.124;2022-12-18T03:54:41;-5.29;85.42
19536;HTU21D;9913;51.168;4.124;2022-12-18T03:57:16;-5.23;85.35
19536;HTU21D;9913;51.168;4.124;2022-12-18T03:59:51;-5.22;85.44
19536;HTU21D;9913;51.168;4.124;2022-12-18T04:02:24;-5.14;85.35
19536;HTU21D;9913;51.168;4.124;2022-12-18T04:04:57;-5.11;85.34
19536;HTU21D;9913;51.168;4.124;2022-12-18T04:07:27;-5.13;85.19
19536;HTU21D;9913;51.168;4.124;2022-12-18T04:09:59;-5.09;85.18
19536;HTU21D;9913;51.168;4.124;2022-12-18T04:12:30;-5.04;85.10
19536;HTU21D;9913;51.168;4.124;2022-12-18T04:15:00;-5.07;85.07
19536;HTU21D;9913;51.168;4.124;2022-12-18T04:17:29;-5.08;85.05
19536;HTU21D;9913;51.168;4.124;2022-12-18T04:19:58;-5.12;85.10
19536;HTU21D;9913;51.168;4.124;2022-12-18T04:22:26;-5.14;85.09
19536;HTU21D;9913;51.168;4.124;2022-12-18T04:24:58;-5.25;85.17
19536;HTU21D;9913;51.168;4.124;2022-12-18T04:27:37;-5.32;85.36
19536;HTU21D;9913;51.168;4.124;2022-12-18T04:30:10;-5.35;85.37
19536;HTU21D;9913;51.168;4.124;2022-12-18T04:32:38;-5.37;85.34
19536;HTU21D;9913;51.168;4.124;2022-12-18T04:35:08;-5.31;85.32
19536;HTU21D;9913;51.168;4.124;2022-12-18T04:37:38;-5.32;85.32
19536;HTU21D;9913;51.168;4.124;2022-12-18T04:40:08;-5.31;85.36
19536;HTU21D;9913;51.168;4.124;2022-12-18T04:42:41;-5.27;85.34
19536;HTU21D;9913;51.168;4.124;2022-12-18T04:45:11;-5.38;85.35
19536;HTU21D;9913;51.168;4.124;2022-12-18T04:47:39;-5.42;85.56
19536;HTU21D;9913;51.168;4.124;2022-12-18T04:50:08;-5.53;85.61
19536;HTU21D;9913;51.168;4.124;2022-12-18T04:52:36;-5.52;85.51
19536;HTU21D;9913;51.168;4.124;2022-12-18T04:55:05;-5.46;85.54
19536;HTU21D;9913;51.168;4.124;2022-12-18T04:57:33;-5.46;85.61
19536;HTU21D;9913;51.168;4.124;2022-12-18T05:00:03;-5.43;85.60
19536;HTU21D;9913;51.168;4.124;2022-12-18T05:02:33;-5.43;85.51
19536;HTU21D;9913;51.168;4.124;2022-12-18T05:05:01;-5.34;85.47
19536;HTU21D;9913;51.168;4.124;2022-12-18T05:07:30;-5.28;85.41
19536;HTU21D;9913;51.168;4.124;2022-12-18T05:09:58;-5.17;85.33
19536;HTU21D;9913;51.168;4.124;2022-12-18T05:12:26;-5.10;85.16
19536;HTU21D;9913;51.168;4.124;2022-12-18T05:14:54;-5.04;85.11
19536;HTU21D;9913;51.168;4.124;2022-12-18T05:17:23;-5.07;85.04
19536;HTU21D;9913;51.168;4.124;2022-12-18T05:19:52;-5.04;85.06
19536;HTU21D;9913;51.168;4.124;2022-12-18T05:22:20;-5.10;85.00
19536;HTU21D;9913;51.168;4.124;2022-12-18T05:24:49;-5.04;85.04
19536;HTU21D;9913;51.168;4.124;2022-12-18T05:27:17;-4.97;84.81
19536;HTU21D;9913;51.168;4.124;2022-12-18T05:29:47;-4.88;84.71
19536;HTU21D;9913;51.168;4.124;2022-12-18T05:32:15;-4.87;84.68
19536;HTU21D;9913;51.168;4.124;2022-12-18T05:34:44;-4.85;84.62
19536;HTU21D;9913;51.168;4.124;2022-12-18T05:37:14;-4.84;84.52
19536;HTU21D;9913;51.168;4.124;2022-12-18T05:39:42;-4.91;84.64
19536;HTU21D;9913;51.168;4.124;2022-12-18T05:42:11;-4.94;84.59
19536;HTU21D;9913;51.168;4.124;2022-12-18T05:44:39;-5.00;84.70
19536;HTU21D;9913;51.168;4.124;2022-12-18T05:47:08;-4.96;84.79
19536;HTU21D;9913;51.168;4.124;2022-12-18T05:49:36;-4.82;84.74
19536;HTU21D;9913;51.168;4.124;2022-12-18T05:52:05;-4.75;84.48
19536;HTU21D;9913;51.168;4.124;2022-12-18T05:54:34;-4.71;84.39
19536;HTU21D;9913;51.168;4.124;2022-12-18T05:57:03;-4.76;84.39
19536;HTU21D;9913;51.168;4.124;2022-12-18T05:59:31;-4.76;84.30
19536;HTU21D;9913;51.168;4.124;2022-12-18T06:02:00;-4.79;84.46
19536;HTU21D;9913;51.168;4.124;2022-12-18T06:04:28;-4.89;84.40
19536;HTU21D;9913;51.168;4.124;2022-12-18T06:06:56;-4.94;84.49
19536;HTU21D;9913;51.168;4.124;2022-12-18T06:09:25;-4.98;84.54
19536;HTU21D;9913;51.168;4.124;2022-12-18T06:11:55;-5.09;84.92
19536;HTU21D;9913;51.168;4.124;2022-12-18T06:14:23;-5.14;84.87
19536;HTU21D;9913;51.168;4.124;2022-12-18T06:16:51;-5.14;84.90
19536;HTU21D;9913;51.168;4.124;2022-12-18T06:19:19;-5.13;85.02
19536;HTU21D;9913;51.168;4.124;2022-12-18T06:21:48;-5.07;84.97
19536;HTU21D;9913;51.168;4.124;2022-12-18T06:24:17;-5.00;84.91
19536;HTU21D;9913;51.168;4.124;2022-12-18T06:26:45;-4.97;84.80
19536;HTU21D;9913;51.168;4.124;2022-12-18T06:29:15;-4.96;84.77
19536;HTU21D;9913;51.168;4.124;2022-12-18T06:31:43;-4.93;84.68
19536;HTU21D;9913;51.168;4.124;2022-12-18T06:34:12;-4.94;84.68
19536;HTU21D;9913;51.168;4.124;2022-12-18T06:36:40;-4.96;84.68
19536;HTU21D;9913;51.168;4.124;2022-12-18T06:39:09;-4.96;84.58
19536;HTU21D;9913;51.168;4.124;2022-12-18T06:41:37;-5.02;84.67
19536;HTU21D;9913;51.168;4.124;2022-12-18T06:44:05;-5.01;84.75
19536;HTU21D;9913;51.168;4.124;2022-12-18T06:46:35;-4.99;84.58
19536;HTU21D;9913;51.168;4.124;2022-12-18T06:49:04;-5.02;84.80
19536;HTU21D;9913;51.168;4.124;2022-12-18T06:51:33;-5.05;84.65
19536;HTU21D;9913;51.168;4.124;2022-12-18T06:54:02;-5.08;84.76
19536;HTU21D;9913;51.168;4.124;2022-12-18T06:56:30;-5.04;84.87
19536;HTU21D;9913;51.168;4.124;2022-12-18T06:58:59;-5.05;84.74
19536;HTU21D;9913;51.168;4.124;2022-12-18T07:01:27;-5.03;84.74
19536;HTU21D;9913;51.168;4.124;2022-12-18T07:03:57;-5.02;84.84
19536;HTU21D;9913;51.168;4.124;2022-12-18T07:06:26;-5.02;84.78
19536;HTU21D;9913;51.168;4.124;2022-12-18T07:08:54;-5.00;84.81
19536;HTU21D;9913;51.168;4.124;2022-12-18T07:11:23;-5.02;84.77
19536;HTU21D;9913;51.168;4.124;2022-12-18T07:13:52;-5.01;84.79
19536;HTU21D;9913;51.168;4.124;2022-12-18T07:16:21;-5.04;84.83
19536;HTU21D;9913;51.168;4.124;2022-12-18T07:18:52;-5.01;84.74
19536;HTU21D;9913;51.168;4.124;2022-12-18T07:21:23;-5.03;84.74
19536;HTU21D;9913;51.168;4.124;2022-12-18T07:23:52;-5.00;84.76
19536;HTU21D;9913;51.168;4.124;2022-12-18T07:26:21;-5.01;84.68
19536;HTU21D;9913;51.168;4.124;2022-12-18T07:28:50;-5.01;84.66
19536;HTU21D;9913;51.168;4.124;2022-12-18T07:31:20;-4.96;84.83
19536;HTU21D;9913;51.168;4.124;2022-12-18T07:33:49;-4.95;84.72
19536;HTU21D;9913;51.168;4.124;2022-12-18T07:36:18;-4.94;84.61
19536;HTU21D;9913;51.168;4.124;2022-12-18T07:38:49;-4.94;84.57
19536;HTU21D;9913;51.168;4.124;2022-12-18T07:41:18;-4.88;84.62
19536;HTU21D;9913;51.168;4.124;2022-12-18T07:43:46;-4.89;84.52
19536;HTU21D;9913;51.168;4.124;2022-12-18T07:46:16;-4.91;84.55
19536;HTU21D;9913;51.168;4.124;2022-12-18T07:48:45;-4.93;84.64
19536;HTU21D;9913;51.168;4.124;2022-12-18T07:51:16;-4.99;84.68
19536;HTU21D;9913;51.168;4.124;2022-12-18T07:53:45;-4.93;84.69
19536;HTU21D;9913;51.168;4.124;2022-12-18T07:56:19;-4.83;84.74
19536;HTU21D;9913;51.168;4.124;2022-12-18T07:58:54;-4.76;84.71
19536;HTU21D;9913;51.168;4.124;2022-12-18T08:01:22;-4.71;84.72
19536;HTU21D;9913;51.168;4.124;2022-12-18T08:03:51;-4.64;84.77
19536;HTU21D;9913;51.168;4.124;2022-12-18T08:06:19;-4.63;84.57
19536;HTU21D;9913;51.168;4.124;2022-12-18T08:08:51;-4.56;84.64
19536;HTU21D;9913;51.168;4.124;2022-12-18T08:11:22;-4.54;84.42
19536;HTU21D;9913;51.168;4.124;2022-12-18T08:13:51;-4.53;84.33
19536;HTU21D;9913;51.168;4.124;2022-12-18T08:16:20;-4.46;84.29
19536;HTU21D;9913;51.168;4.124;2022-12-18T08:18:49;-4.40;84.39
19536;HTU21D;9913;51.168;4.124;2022-12-18T08:21:18;-4.34;84.41
19536;HTU21D;9913;51.168;4.124;2022-12-18T08:23:48;-4.27;84.22
19536;HTU21D;9913;51.168;4.124;2022-12-18T08:26:18;-4.20;84.52
19536;HTU21D;9913;51.168;4.124;2022-12-18T08:28:49;-4.14;84.42
19536;HTU21D;9913;51.168;4.124;2022-12-18T08:31:18;-4.13;84.13
19536;HTU21D;9913;51.168;4.124;2022-12-18T08:33:48;-4.09;84.21
19536;HTU21D;9913;51.168;4.124;2022-12-18T08:36:17;-4.09;84.11
19536;HTU21D;9913;51.168;4.124;2022-12-18T08:38:46;-4.02;84.29
19536;HTU21D;9913;51.168;4.124;2022-12-18T08:41:16;-4.06;84.13
19536;HTU21D;9913;51.168;4.124;2022-12-18T08:43:44;-4.01;84.17
19536;HTU21D;9913;51.168;4.124;2022-12-18T08:46:36;-3.96;84.02
19536;HTU21D;9913;51.168;4.124;2022-12-18T08:49:06;-3.93;84.25
19536;HTU21D;9913;51.168;4.124;2022-12-18T08:51:35;-3.91;84.07
19536;HTU21D;9913;51.168;4.124;2022-12-18T08:54:05;-3.87;84.33
19536;HTU21D;9913;51.168;4.124;2022-12-18T08:56:33;-3.83;84.14
19536;HTU21D;9913;51.168;4.124;2022-12-18T08:59:02;-3.78;84.39
19536;HTU21D;9913;51.168;4.124;2022-12-18T09:01:31;-3.72;84.15
19536;HTU21D;9913;51.168;4.124;2022-12-18T09:04:02;-3.71;84.23
19536;HTU21D;9913;51.168;4.124;2022-12-18T09:06:33;-3.70;84.17
19536;HTU21D;9913;51.168;4.124;2022-12-18T09:09:03;-3.67;84.23
19536;HTU21D;9913;51.168;4.124;2022-12-18T09:11:32;-3.56;84.04
19536;HTU21D;9913;51.168;4.124;2022-12-18T09:14:01;-3.63;84.41
19536;HTU21D;9913;51.168;4.124;2022-12-18T09:16:31;-3.60;84.21
19536;HTU21D;9913;51.168;4.124;2022-12-18T09:19:04;-3.50;84.07
19536;HTU21D;9913;51.168;4.124;2022-12-18T09:21:34;-3.39;84.10
19536;HTU21D;9913;51.168;4.124;2022-12-18T09:24:04;-3.43;84.20
19536;HTU21D;9913;51.168;4.124;2022-12-18T09:26:35;-3.33;84.13
19536;HTU21D;9913;51.168;4.124;2022-12-18T09:29:04;-3.31;84.11
19536;HTU21D;9913;51.168;4.124;2022-12-18T09:31:34;-3.31;83.98
19536;HTU21D;9913;51.168;4.124;2022-12-18T09:34:04;-3.22;84.09
19536;HTU21D;9913;51.168;4.124;2022-12-18T09:36:34;-3.22;83.68
19536;HTU21D;9913;51.168;4.124;2022-12-18T09:39:02;-3.16;84.29
19536;HTU21D;9913;51.168;4.124;2022-12-18T09:41:41;-3.09;83.94
19536;HTU21D;9913;51.168;4.124;2022-12-18T09:44:16;-3.02;83.72
19536;HTU21D;9913;51.168;4.124;2022-12-18T09:46:53;-2.92;83.94
19536;HTU21D;9913;51.168;4.124;2022-12-18T09:49:27;-2.96;83.53
19536;HTU21D;9913;51.168;4.124;2022-12-18T09:52:02;-2.92;84.09
19536;HTU21D;9913;51.168;4.124;2022-12-18T09:54:35;-2.88;83.72
19536;HTU21D;9913;51.168;4.124;2022-12-18T09:57:05;-2.86;83.83
19536;HTU21D;9913;51.168;4.124;2022-12-18T09:59:36;-2.93;83.91
19536;HTU21D;9913;51.168;4.124;2022-12-18T10:02:14;-2.93;84.20
19536;HTU21D;9913;51.168;4.124;2022-12-18T10:04:50;-2.91;83.42
19536;HTU21D;9913;51.168;4.124;2022-12-18T10:07:26;-2.84;83.88
19536;HTU21D;9913;51.168;4.124;2022-12-18T10:10:01;-2.76;84.18
19536;HTU21D;9913;51.168;4.124;2022-12-18T10:12:36;-2.78;83.89
19536;HTU21D;9913;51.168;4.124;2022-12-18T10:15:12;-2.76;83.87
19536;HTU21D;9913;51.168;4.124;2022-12-18T10:17:46;-2.73;83.52
19536;HTU21D;9913;51.168;4.124;2022-12-18T10:20:24;-2.64;83.32
19536;HTU21D;9913;51.168;4.124;2022-12-18T10:22:58;-2.67;83.80
19536;HTU21D;9913;51.168;4.124;2022-12-18T10:25:31;-2.68;84.49
19536;HTU21D;9913;51.168;4.124;2022-12-18T10:28:09;-2.50;83.80
19536;HTU21D;9913;51.168;4.124;2022-12-18T10:30:39;-2.48;83.77
19536;HTU21D;9913;51.168;4.124;2022-12-18T10:33:10;-2.44;83.66
19536;HTU21D;9913;51.168;4.124;2022-12-18T10:35:44;-2.43;83.67
19536;HTU21D;9913;51.168;4.124;2022-12-18T10:38:24;-2.43;83.37
19536;HTU21D;9913;51.168;4.124;2022-12-18T10:40:55;-2.38;83.48
19536;HTU21D;9913;51.168;4.124;2022-12-18T10:43:26;-2.33;83.39
19536;HTU21D;9913;51.168;4.124;2022-12-18T10:46:04;-2.28;83.39
19536;HTU21D;9913;51.168;4.124;2022-12-18T10:48:40;-2.13;83.39
19536;HTU21D;9913;51.168;4.124;2022-12-18T10:51:20;-2.16;84.18
19536;HTU21D;9913;51.168;4.124;2022-12-18T10:53:54;-2.01;83.33
19536;HTU21D;9913;51.168;4.124;2022-12-18T10:56:24;-2.06;83.97
19536;HTU21D;9913;51.168;4.124;2022-12-18T10:58:59;-1.90;83.87
19536;HTU21D;9913;51.168;4.124;2022-12-18T11:01:44;-2.04;83.14
19536;HTU21D;9913;51.168;4.124;2022-12-18T11:04:17;-2.00;83.84
19536;HTU21D;9913;51.168;4.124;2022-12-18T11:06:59;-2.01;83.66
19536;HTU21D;9913;51.168;4.124;2022-12-18T11:09:29;-1.90;83.55
19536;HTU21D;9913;51.168;4.124;2022-12-18T11:12:00;-2.02;83.68
19536;HTU21D;9913;51.168;4.124;2022-12-18T11:14:32;-1.98;83.27
19536;HTU21D;9913;51.168;4.124;2022-12-18T11:17:01;-1.92;83.90
19536;HTU21D;9913;51.168;4.124;2022-12-18T11:19:53;-2.02;83.55
19536;HTU21D;9913;51.168;4.124;2022-12-18T11:22:25;-2.03;83.99
19536;HTU21D;9913;51.168;4.124;2022-12-18T11:24:57;-1.99;83.55
19536;HTU21D;9913;51.168;4.124;2022-12-18T11:27:51;-2.01;83.58
19536;HTU21D;9913;51.168;4.124;2022-12-18T11:30:22;-1.93;83.07
19536;HTU21D;9913;51.168;4.124;2022-12-18T11:32:54;-1.93;83.95
19536;HTU21D;9913;51.168;4.124;2022-12-18T11:35:32;-1.87;83.63
19536;HTU21D;9913;51.168;4.124;2022-12-18T11:38:12;-1.88;83.47
19536;HTU21D;9913;51.168;4.124;2022-12-18T11:40:48;-1.82;83.50
19536;HTU21D;9913;51.168;4.124;2022-12-18T11:43:25;-1.83;83.44
19536;HTU21D;9913;51.168;4.124;2022-12-18T11:45:56;-1.80;83.49
19536;HTU21D;9913;51.168;4.124;2022-12-18T11:48:31;-1.82;83.56
19536;HTU21D;9913;51.168;4.124;2022-12-18T11:51:03;-1.74;84.19
19536;HTU21D;9913;51.168;4.124;2022-12-18T11:53:34;-1.74;83.71
19536;HTU21D;9913;51.168;4.124;2022-12-18T11:56:24;-1.73;83.35
19536;HTU21D;9913;51.168;4.124;2022-12-18T11:59:02;-1.63;83.61
19536;HTU21D;9913;51.168;4.124;2022-12-18T12:01:46;-1.55;83.88
19536;HTU21D;9913;51.168;4.124;2022-12-18T12:04:45;-1.53;83.18
19536;HTU21D;9913;51.168;4.124;2022-12-18T12:07:28;-1.53;83.74
19536;HTU21D;9913;51.168;4.124;2022-12-18T12:10:14;-1.36;83.52
19536;HTU21D;9913;51.168;4.124;2022-12-18T12:12:59;-1.41;83.46
19536;HTU21D;9913;51.168;4.124;2022-12-18T12:15:34;-1.53;83.29
19536;HTU21D;9913;51.168;4.124;2022-12-18T12:18:16;-1.33;83.69
19536;HTU21D;9913;51.168;4.124;2022-12-18T12:20:58;-1.36;83.23
19536;HTU21D;9913;51.168;4.124;2022-12-18T12:23:36;-1.34;83.78
19536;HTU21D;9913;51.168;4.124;2022-12-18T12:26:10;-1.39;83.52
19536;HTU21D;9913;51.168;4.124;2022-12-18T12:28:57;-1.30;83.52
19536;HTU21D;9913;51.168;4.124;2022-12-18T12:31:42;-1.23;83.77
19536;HTU21D;9913;51.168;4.124;2022-12-18T12:34:18;-1.16;83.65
19536;HTU21D;9913;51.168;4.124;2022-12-18T12:36:57;-1.27;83.30
19536;HTU21D;9913;51.168;4.124;2022-12-18T12:39:32;-1.20;83.58
19536;HTU21D;9913;51.168;4.124;2022-12-18T12:42:04;-1.20;83.70
19536;HTU21D;9913;51.168;4.124;2022-12-18T12:44:52;-1.20;83.49
19536;HTU21D;9913;51.168;4.124;2022-12-18T12:47:26;-1.18;83.09
19536;HTU21D;9913;51.168;4.124;2022-12-18T12:49:56;-1.04;83.00
19536;HTU21D;9913;51.168;4.124;2022-12-18T12:52:31;-1.19;83.45
19536;HTU21D;9913;51.168;4.124;2022-12-18T12:55:02;-1.17;83.49
19536;HTU21D;9913;51.168;4.124;2022-12-18T12:57:45;-1.11;83.22
19536;HTU21D;9913;51.168;4.124;2022-12-18T13:00:16;-1.11;83.16
19536;HTU21D;9913;51.168;4.124;2022-12-18T13:02:51;-1.08;83.65
19536;HTU21D;9913;51.168;4.124;2022-12-18T13:05:25;-1.04;83.36
19536;HTU21D;9913;51.168;4.124;2022-12-18T13:07:58;-0.97;83.11
19536;HTU21D;9913;51.168;4.124;2022-12-18T13:10:35;-0.94;83.49
19536;HTU21D;9913;51.168;4.124;2022-12-18T13:13:08;-0.90;83.26
19536;HTU21D;9913;51.168;4.124;2022-12-18T13:15:39;-0.97;83.45
19536;HTU21D;9913;51.168;4.124;2022-12-18T13:18:17;-0.91;83.26
19536;HTU21D;9913;51.168;4.124;2022-12-18T13:20:47;-0.89;83.42
19536;HTU21D;9913;51.168;4.124;2022-12-18T13:23:29;-0.94;83.33
19536;HTU21D;9913;51.168;4.124;2022-12-18T13:26:00;-0.97;83.25
19536;HTU21D;9913;51.168;4.124;2022-12-18T13:28:58;-1.00;83.67
19536;HTU21D;9913;51.168;4.124;2022-12-18T13:34:42;-0.90;83.53
19536;HTU21D;9913;51.168;4.124;2022-12-18T13:37:42;-0.84;83.49
19536;HTU21D;9913;51.168;4.124;2022-12-18T13:43:26;-0.91;83.33
19536;HTU21D;9913;51.168;4.124;2022-12-18T13:46:05;-0.89;83.82
19536;HTU21D;9913;51.168;4.124;2022-12-18T13:48:37;-0.87;83.33
19536;HTU21D;9913;51.168;4.124;2022-12-18T13:51:09;-0.86;83.55
19536;HTU21D;9913;51.168;4.124;2022-12-18T13:53:44;-0.87;83.25
19536;HTU21D;9913;51.168;4.124;2022-12-18T13:56:16;-0.76;83.46
19536;HTU21D;9913;51.168;4.124;2022-12-18T13:58:45;-0.80;83.55
19536;HTU21D;9913;51.168;4.124;2022-12-18T14:01:23;-0.80;83.22
19536;HTU21D;9913;51.168;4.124;2022-12-18T14:04:08;-0.81;83.51
19536;HTU21D;9913;51.168;4.124;2022-12-18T14:06:38;-0.84;83.45
19536;HTU21D;9913;51.168;4.124;2022-12-18T14:09:08;-0.85;83.41
19536;HTU21D;9913;51.168;4.124;2022-12-18T14:11:45;-0.90;83.45
19536;HTU21D;9913;51.168;4.124;2022-12-18T14:14:15;-0.80;83.45
19536;HTU21D;9913;51.168;4.124;2022-12-18T14:16:46;-0.84;83.55
19536;HTU21D;9913;51.168;4.124;2022-12-18T14:19:17;-0.88;83.63
19536;HTU21D;9913;51.168;4.124;2022-12-18T14:21:46;-0.94;83.41
19536;HTU21D;9913;51.168;4.124;2022-12-18T14:24:16;-0.97;83.59
19536;HTU21D;9913;51.168;4.124;2022-12-18T14:26:46;-0.88;83.61
19536;HTU21D;9913;51.168;4.124;2022-12-18T14:29:22;-0.83;83.41
19536;HTU21D;9913;51.168;4.124;2022-12-18T14:32:10;-0.86;83.43
19536;HTU21D;9913;51.168;4.124;2022-12-18T14:34:45;-0.85;83.40
19536;HTU21D;9913;51.168;4.124;2022-12-18T14:37:15;-0.88;83.45
19536;HTU21D;9913;51.168;4.124;2022-12-18T14:39:57;-0.82;83.78
19536;HTU21D;9913;51.168;4.124;2022-12-18T14:42:31;-0.74;83.46
19536;HTU21D;9913;51.168;4.124;2022-12-18T14:45:32;-0.74;83.56
19536;HTU21D;9913;51.168;4.124;2022-12-18T14:48:15;-0.75;83.49
19536;HTU21D;9913;51.168;4.124;2022-12-18T14:50:57;-0.76;83.37
19536;HTU21D;9913;51.168;4.124;2022-12-18T14:53:34;-0.74;83.64
19536;HTU21D;9913;51.168;4.124;2022-12-18T14:56:13;-0.72;83.61
19536;HTU21D;9913;51.168;4.124;2022-12-18T14:58:45;-0.69;83.46
19536;HTU21D;9913;51.168;4.124;2022-12-18T15:01:19;-0.68;83.39
19536;HTU21D;9913;51.168;4.124;2022-12-18T15:03:51;-0.66;83.39
19536;HTU21D;9913;51.168;4.124;2022-12-18T15:06:27;-0.66;83.50
19536;HTU21D;9913;51.168;4.124;2022-12-18T15:08:57;-0.67;83.49
19536;HTU21D;9913;51.168;4.124;2022-12-18T15:11:29;-0.64;83.43
19536;HTU21D;9913;51.168;4.124;2022-12-18T15:14:03;-0.60;83.42
19536;HTU21D;9913;51.168;4.124;2022-12-18T15:16:51;-0.54;83.29
19536;HTU21D;9913;51.168;4.124;2022-12-18T15:19:25;-0.56;83.16
19536;HTU21D;9913;51.168;4.124;2022-12-18T15:21:54;-0.54;83.20
19536;HTU21D;9913;51.168;4.124;2022-12-18T15:24:32;-0.57;83.45
19536;HTU21D;9913;51.168;4.124;2022-12-18T15:27:01;-0.52;83.21
19536;HTU21D;9913;51.168;4.124;2022-12-18T15:29:30;-0.52;83.36
19536;HTU21D;9913;51.168;4.124;2022-12-18T15:32:03;-0.51;83.29
19536;HTU21D;9913;51.168;4.124;2022-12-18T15:34:34;-0.53;83.37
19536;HTU21D;9913;51.168;4.124;2022-12-18T15:37:02;-0.45;83.29
19536;HTU21D;9913;51.168;4.124;2022-12-18T15:39:31;-0.50;83.29
19536;HTU21D;9913;51.168;4.124;2022-12-18T15:42:00;-0.50;83.41
19536;HTU21D;9913;51.168;4.124;2022-12-18T15:44:46;-0.44;83.16
19536;HTU21D;9913;51.168;4.124;2022-12-18T15:47:15;-0.47;83.30
19536;HTU21D;9913;51.168;4.124;2022-12-18T15:49:45;-0.52;83.61
19536;HTU21D;9913;51.168;4.124;2022-12-18T15:52:13;-0.55;82.90
19536;HTU21D;9913;51.168;4.124;2022-12-18T15:54:53;-0.56;83.26
19536;HTU21D;9913;51.168;4.124;2022-12-18T15:57:38;-0.58;83.01
19536;HTU21D;9913;51.168;4.124;2022-12-18T16:00:12;-0.53;83.36
19536;HTU21D;9913;51.168;4.124;2022-12-18T16:02:40;-0.46;83.36
19536;HTU21D;9913;51.168;4.124;2022-12-18T16:05:14;-0.38;83.90
19536;HTU21D;9913;51.168;4.124;2022-12-18T16:07:43;-0.34;82.95
19536;HTU21D;9913;51.168;4.124;2022-12-18T16:10:12;-0.32;83.15